Time;durP1;ratioP1;P1;durP2;ratioP2;P2;SDS_P1;SDS_P2;PMS_P1;PMS_P2;Temp;Humidity;BMP_temperature;BMP_pressure;BME280_temperature;BME280_humidity;BME280_pressure;Samples;Min_cycle;Max_cycle;Signal;HPM_P1;HPM_P2
2021/12/01 00:01:05;;;;;;;3.00;2.80;;;;;;;5.51;55.01;94234.66;4857558;29;20210;-77
2021/12/01 00:03:32;;;;;;;3.03;2.67;;;;;;;5.49;54.89;94233.97;4858397;29;20225;-77
2021/12/01 00:05:59;;;;;;;4.83;3.40;;;;;;;5.47;55.28;94218.84;4858104;29;20204;-76
2021/12/01 00:08:28;;;;;;;4.10;3.60;;;;;;;5.47;55.38;94215.53;4858275;29;20262;-76
2021/12/01 00:10:54;;;;;;;6.47;2.93;;;;;;;5.42;55.62;94210.81;4858448;29;20190;-76
2021/12/01 00:13:22;;;;;;;3.50;3.00;;;;;;;5.43;55.74;94226.81;4857908;29;20256;-76
2021/12/01 00:15:51;;;;;;;4.20;3.23;;;;;;;5.39;56.04;94227.97;4857758;29;20213;-76
2021/12/01 00:18:18;;;;;;;5.00;3.83;;;;;;;5.33;56.31;94211.53;4858508;29;20201;-76
2021/12/01 00:20:46;;;;;;;6.37;4.00;;;;;;;5.31;56.55;94199.88;4857846;29;20261;-75
2021/12/01 00:23:13;;;;;;;7.37;4.80;;;;;;;5.24;56.87;94232.50;4857889;29;20229;-76
2021/12/01 00:25:42;;;;;;;7.23;4.50;;;;;;;5.18;57.24;94228.72;4856490;29;20194;-75
2021/12/01 00:28:10;;;;;;;7.47;5.23;;;;;;;4.93;57.66;94201.09;4858213;29;20233;-80
2021/12/01 00:30:40;;;;;;;7.10;5.03;;;;;;;4.74;57.65;94199.09;4857233;29;20205;-78
2021/12/01 00:33:08;;;;;;;7.50;5.10;;;;;;;4.89;57.72;94220.78;4858498;29;20198;-81
2021/12/01 00:35:35;;;;;;;7.43;5.50;;;;;;;4.99;57.87;94219.16;4858407;29;20186;-80
2021/12/01 00:38:02;;;;;;;7.70;5.07;;;;;;;4.40;57.75;94157.75;4858615;29;20193;-81
2021/12/01 00:40:29;;;;;;;7.30;5.50;;;;;;;4.85;58.02;94233.78;4857913;29;20205;-78
2021/12/01 00:42:57;;;;;;;8.60;6.03;;;;;;;4.83;57.89;94250.81;4857717;29;20236;-78
2021/12/01 00:45:26;;;;;;;8.40;5.80;;;;;;;4.75;58.10;94216.75;4858474;29;20210;-78
2021/12/01 00:47:53;;;;;;;7.40;5.33;;;;;;;4.56;58.10;94208.88;4858041;29;20198;-81
2021/12/01 00:50:23;;;;;;;8.17;5.50;;;;;;;4.71;58.15;94224.69;4856685;29;20197;-80
2021/12/01 00:52:51;;;;;;;9.50;6.00;;;;;;;4.48;58.25;94178.25;4857867;29;20190;-77
2021/12/01 00:55:18;;;;;;;9.10;6.07;;;;;;;4.65;58.44;94215.00;4857962;29;20198;-80
2021/12/01 00:57:45;;;;;;;10.33;6.20;;;;;;;4.61;58.56;94199.22;4858055;29;20193;-77
2021/12/01 01:00:15;;;;;;;7.80;5.73;;;;;;;4.57;58.57;94207.97;4857724;29;20197;-81
2021/12/01 01:02:42;;;;;;;8.97;6.07;;;;;;;4.53;58.54;94222.59;4868003;29;20614;-81
2021/12/01 01:05:10;;;;;;;10.87;6.03;;;;;;;4.49;58.62;94245.69;4876740;29;20200;-79
2021/12/01 01:07:37;;;;;;;10.40;6.43;;;;;;;4.44;58.61;94223.25;4876225;29;20193;-79
2021/12/01 01:10:16;;;;;;;12.07;7.37;;;;;;;4.38;58.85;94218.63;4876630;29;20201;-78
2021/12/01 01:18:17;;;;;;;11.07;6.93;;;;;;;4.22;58.85;94233.31;4876923;29;20189;-78
2021/12/01 01:20:44;;;;;;;9.47;6.93;;;;;;;4.17;59.03;94243.78;4875940;29;20243;-79
2021/12/01 01:23:11;;;;;;;10.70;7.03;;;;;;;4.17;59.15;94240.44;4876319;29;20251;-77
2021/12/01 01:25:38;;;;;;;11.00;6.27;;;;;;;4.13;59.26;94231.47;4876198;29;20640;-78
2021/12/01 01:28:05;;;;;;;7.00;6.00;;;;;;;4.06;59.05;94223.50;4876538;29;20606;-77
2021/12/01 01:30:33;;;;;;;8.93;6.43;;;;;;;3.97;59.28;94232.56;4876369;29;20212;-77
2021/12/01 01:33:01;;;;;;;10.43;7.17;;;;;;;4.02;59.42;94260.88;4876228;29;20197;-80
2021/12/01 01:35:28;;;;;;;9.93;6.73;;;;;;;4.02;59.66;94239.84;4876737;29;20197;-76
2021/12/01 01:37:55;;;;;;;7.10;5.87;;;;;;;4.04;59.56;94255.69;4875690;29;20671;-79
2021/12/01 01:40:21;;;;;;;10.57;6.27;;;;;;;4.03;59.71;94241.44;4876223;29;20649;-76
2021/12/01 01:42:49;;;;;;;9.20;5.83;;;;;;;3.95;59.76;94229.31;4878958;29;20233;-78
2021/12/01 01:45:19;;;;;;;6.57;5.20;;;;;;;4.03;59.73;94247.28;4879874;29;20257;-78
2021/12/01 01:47:59;;;;;;;10.73;6.47;;;;;;;3.73;59.68;94176.94;4879091;29;20582;-76
2021/12/01 01:50:35;;;;;;;9.00;5.07;;;;;;;4.08;59.56;94244.44;4862863;29;20208;-79
2021/12/01 01:53:03;;;;;;;11.30;6.03;;;;;;;4.02;59.69;94214.53;4879538;29;20207;-80
2021/12/01 01:55:30;;;;;;;6.03;5.00;;;;;;;4.11;59.60;94202.94;4879598;29;20632;-79
2021/12/01 01:57:57;;;;;;;7.20;5.50;;;;;;;3.95;59.57;94196.44;4878891;29;20194;-80
2021/12/01 02:00:24;;;;;;;7.37;5.90;;;;;;;4.08;59.42;94221.66;4879285;29;20201;-78
2021/12/01 02:02:53;;;;;;;8.83;5.63;;;;;;;4.03;59.55;94211.88;4878984;29;20232;-80
2021/12/01 02:05:21;;;;;;;7.07;5.20;;;;;;;4.05;59.60;94201.63;4879669;29;20276;-78
2021/12/01 02:07:49;;;;;;;8.07;5.00;;;;;;;4.03;59.48;94195.91;4879173;29;20253;-77
2021/12/01 02:10:16;;;;;;;7.07;5.10;;;;;;;4.01;59.64;94235.66;4879023;29;20185;-78
2021/12/01 02:12:43;;;;;;;6.33;5.23;;;;;;;4.01;59.77;94212.91;4878647;29;20284;-76
2021/12/01 02:15:10;;;;;;;6.13;5.13;;;;;;;3.88;59.62;94192.72;4878791;29;20197;-77
2021/12/01 02:17:38;;;;;;;5.87;4.40;;;;;;;4.02;59.51;94207.75;4878426;29;20204;-77
2021/12/01 02:20:12;;;;;;;8.47;4.60;;;;;;;4.03;59.30;94191.66;4878985;29;20197;-76
2021/12/01 02:22:40;;;;;;;7.00;4.53;;;;;;;4.03;59.54;94201.75;4878364;29;20232;-77
2021/12/01 02:25:08;;;;;;;8.93;4.83;;;;;;;4.05;59.49;94223.59;4878745;29;20675;-77
2021/12/01 02:27:35;;;;;;;7.90;4.70;;;;;;;4.06;59.44;94207.50;4878313;29;20200;-76
2021/12/01 02:30:04;;;;;;;6.80;4.90;;;;;;;4.08;59.52;94188.78;4878559;29;20189;-78
2021/12/01 02:32:31;;;;;;;7.60;4.80;;;;;;;4.09;59.25;94171.88;4878966;29;20261;-76
2021/12/01 02:34:58;;;;;;;6.13;4.60;;;;;;;4.07;59.51;94179.59;4878676;29;20817;-78
2021/12/01 02:37:25;;;;;;;10.07;4.90;;;;;;;3.99;59.61;94170.00;4879660;29;20554;-78
2021/12/01 02:39:54;;;;;;;12.57;4.80;;;;;;;4.09;59.74;94194.63;4878386;29;20208;-80
2021/12/01 02:42:22;;;;;;;7.10;4.63;;;;;;;4.10;59.86;94186.97;4878517;29;20197;-77
2021/12/01 02:44:54;;;;;;;6.93;4.57;;;;;;;3.92;59.71;94141.00;4878082;29;20193;-80
2021/12/01 02:47:23;;;;;;;7.30;4.90;;;;;;;4.18;59.85;94182.13;4862426;29;20586;-78
2021/12/01 02:49:54;;;;;;;6.13;4.80;;;;;;;4.05;59.91;94158.63;4878405;29;20185;-76
2021/12/01 02:52:23;;;;;;;5.33;4.47;;;;;;;4.14;59.75;94179.94;4877685;29;20189;-76
2021/12/01 02:54:51;;;;;;;7.73;4.50;;;;;;;4.24;59.73;94208.72;4860884;29;20204;-76
2021/12/01 02:57:20;;;;;;;5.63;4.80;;;;;;;4.26;59.63;94195.03;4861560;29;20205;-77
2021/12/01 02:59:49;;;;;;;6.97;4.93;;;;;;;4.27;59.59;94204.25;4878384;29;20197;-79
2021/12/01 03:02:18;;;;;;;6.43;4.87;;;;;;;4.22;59.67;94223.19;4878550;29;20667;-81
2021/12/01 03:04:47;;;;;;;6.50;4.70;;;;;;;4.11;59.80;94195.34;4877928;29;20201;-80
2021/12/01 03:07:14;;;;;;;5.33;4.40;;;;;;;4.28;59.74;94218.50;4878693;29;20224;-82
2021/12/01 03:09:42;;;;;;;6.93;4.30;;;;;;;4.30;59.75;94182.97;4877568;29;20288;-78
2021/12/01 03:12:10;;;;;;;9.47;5.10;;;;;;;4.30;59.70;94172.03;4878340;29;20767;-83
2021/12/01 03:14:46;;;;;;;5.67;4.77;;;;;;;4.31;59.67;94217.47;4877669;29;20237;-81
2021/12/01 03:17:13;;;;;;;7.63;5.43;;;;;;;4.33;59.50;94220.72;4877581;29;20647;-77
2021/12/01 03:19:40;;;;;;;6.10;4.60;;;;;;;4.35;59.59;94191.00;4877870;29;20193;-77
2021/12/01 03:22:07;;;;;;;5.00;4.40;;;;;;;4.36;59.69;94181.69;4877892;29;20208;-77
2021/12/01 03:24:34;;;;;;;7.03;4.47;;;;;;;4.37;59.57;94174.00;4877554;29;20722;-76
2021/12/01 03:27:03;;;;;;;6.73;4.70;;;;;;;4.39;59.54;94207.59;4877619;29;20655;-77
2021/12/01 03:29:30;;;;;;;4.43;3.93;;;;;;;4.36;59.69;94194.34;4877677;29;20189;-76
2021/12/01 03:31:58;;;;;;;4.27;3.87;;;;;;;4.40;59.70;94201.59;4877227;29;20197;-76
2021/12/01 03:34:25;;;;;;;4.73;3.70;;;;;;;4.42;59.67;94207.38;4877527;29;20200;-76
2021/12/01 03:36:52;;;;;;;5.90;4.07;;;;;;;4.41;59.80;94223.50;4860495;29;20197;-76
2021/12/01 03:39:19;;;;;;;5.90;3.77;;;;;;;4.38;59.87;94216.09;4877803;29;20197;-75
2021/12/01 03:41:46;;;;;;;6.67;3.97;;;;;;;4.37;59.88;94214.50;4877115;29;20204;-76
2021/12/01 03:44:13;;;;;;;6.17;4.97;;;;;;;4.35;59.97;94210.47;4877972;29;20240;-76
2021/12/01 03:46:39;;;;;;;6.23;4.33;;;;;;;4.32;59.77;94198.03;4877236;29;20201;-77
2021/12/01 03:49:08;;;;;;;5.27;3.87;;;;;;;4.42;59.97;94204.03;4877201;29;20197;-77
2021/12/01 03:51:35;;;;;;;7.30;3.87;;;;;;;4.46;59.92;94202.91;4878314;29;20679;-76
2021/12/01 03:54:02;;;;;;;4.77;3.60;;;;;;;4.53;59.75;94207.41;4878451;29;20185;-74
2021/12/01 03:56:30;;;;;;;4.27;3.87;;;;;;;4.60;59.95;94191.75;4878095;29;20208;-76
2021/12/01 03:58:57;;;;;;;4.27;3.57;;;;;;;4.66;59.72;94202.25;4877971;29;20201;-76
2021/12/01 04:01:24;;;;;;;3.10;2.87;;;;;;;4.61;59.73;94180.69;4877360;29;20200;-77
2021/12/01 04:03:50;;;;;;;3.20;2.90;;;;;;;4.84;59.48;94194.19;4876729;29;20228;-77
2021/12/01 04:06:18;;;;;;;3.80;3.00;;;;;;;4.93;59.45;94189.22;4876904;29;20733;-78
2021/12/01 04:08:46;;;;;;;3.77;2.73;;;;;;;5.02;59.45;94185.19;4876845;29;20192;-76
2021/12/01 04:11:12;;;;;;;2.30;2.10;;;;;;;5.13;59.08;94179.28;4877337;29;20212;-77
2021/12/01 04:13:40;;;;;;;4.13;2.47;;;;;;;5.21;58.73;94169.38;4876539;29;20303;-76
2021/12/01 04:16:06;;;;;;;2.93;2.50;;;;;;;5.08;58.50;94134.03;4876666;29;20272;-75
2021/12/01 04:18:33;;;;;;;2.17;1.97;;;;;;;5.13;58.43;94134.47;4876699;29;20202;-76
2021/12/01 04:21:00;;;;;;;3.37;2.10;;;;;;;5.41;58.33;94163.56;4876567;29;20208;-76
2021/12/01 04:23:30;;;;;;;1.90;1.80;;;;;;;5.47;58.36;94182.56;4876687;29;20233;-75
2021/12/01 04:25:57;;;;;;;2.33;2.20;;;;;;;5.53;58.35;94175.28;4876680;29;20285;-77
2021/12/01 04:28:24;;;;;;;3.50;1.90;;;;;;;5.60;58.27;94157.03;4876489;29;20651;-75
2021/12/01 04:30:51;;;;;;;2.00;1.90;;;;;;;5.64;58.31;94169.34;4876446;29;20197;-76
2021/12/01 04:33:19;;;;;;;2.00;1.90;;;;;;;5.70;57.89;94176.50;4876037;29;20679;-75
2021/12/01 04:35:48;;;;;;;2.10;1.90;;;;;;;5.77;57.81;94166.66;4876008;29;20209;-77
2021/12/01 04:38:15;;;;;;;2.37;2.17;;;;;;;5.81;57.59;94169.78;4894788;29;20188;-75
2021/12/01 04:40:43;;;;;;;1.83;1.73;;;;;;;5.89;57.49;94186.00;4894738;29;20188;-76
2021/12/01 04:43:10;;;;;;;1.90;1.80;;;;;;;5.95;57.45;94194.88;4894273;29;20223;-76
2021/12/01 04:45:41;;;;;;;2.17;2.03;;;;;;;6.00;57.47;94193.59;4889468;29;20192;-76
2021/12/01 04:48:08;;;;;;;2.27;2.07;;;;;;;6.06;57.73;94196.56;4893969;29;20196;-76
2021/12/01 04:50:35;;;;;;;2.23;2.00;;;;;;;6.11;57.82;94197.00;4894622;29;20201;-75
2021/12/01 04:53:02;;;;;;;3.60;2.00;;;;;;;5.74;57.84;94144.91;4894773;29;20566;-76
2021/12/01 04:55:29;;;;;;;1.93;1.80;;;;;;;6.18;57.90;94204.00;4894406;29;20199;-76
2021/12/01 04:57:58;;;;;;;2.87;2.03;;;;;;;6.22;58.14;94202.84;4894483;29;20303;-78
2021/12/01 05:00:27;;;;;;;2.20;2.00;;;;;;;6.28;57.99;94189.63;4894608;29;20191;-77
2021/12/01 05:02:54;;;;;;;2.00;1.90;;;;;;;6.33;57.97;94196.88;4894595;29;20287;-76
2021/12/01 05:05:21;;;;;;;2.37;2.10;;;;;;;6.38;57.64;94207.47;4894954;29;20279;-77
2021/12/01 05:07:51;;;;;;;2.00;1.83;;;;;;;6.44;57.54;94214.59;4894968;29;20613;-77
2021/12/01 05:10:18;;;;;;;1.80;1.70;;;;;;;6.48;57.33;94215.16;4896052;29;20220;-78
2021/12/01 05:12:45;;;;;;;2.17;1.90;;;;;;;6.38;57.25;94201.59;4896319;29;20248;-76
2021/12/01 05:15:13;;;;;;;1.90;1.80;;;;;;;6.56;57.03;94232.28;4894826;29;20208;-80
2021/12/01 05:17:40;;;;;;;1.90;1.80;;;;;;;6.59;57.08;94242.22;4898250;29;20207;-78
2021/12/01 05:20:11;;;;;;;2.00;1.80;;;;;;;6.45;56.95;94216.19;4898273;29;20744;-77
2021/12/01 05:22:38;;;;;;;2.03;1.90;;;;;;;6.68;56.88;94241.47;4898788;29;20189;-77
2021/12/01 05:25:06;;;;;;;2.03;1.93;;;;;;;6.66;56.74;94230.63;4897887;29;20212;-78
2021/12/01 05:27:32;;;;;;;3.27;2.10;;;;;;;6.57;56.97;94226.31;4898827;29;20189;-78
2021/12/01 05:29:59;;;;;;;2.20;2.10;;;;;;;6.78;56.92;94247.41;4897989;29;20665;-80
2021/12/01 05:32:27;;;;;;;2.47;2.20;;;;;;;6.81;56.74;94254.78;4898539;29;20188;-77
2021/12/01 05:34:54;;;;;;;2.23;2.10;;;;;;;6.85;56.79;94245.16;4897996;29;20193;-75
2021/12/01 05:37:21;;;;;;;4.10;2.20;;;;;;;6.79;56.78;94221.88;4898589;29;20634;-76
2021/12/01 05:39:48;;;;;;;2.37;2.17;;;;;;;6.88;56.60;94235.56;4898142;29;20666;-76
2021/12/01 05:42:16;;;;;;;2.67;2.20;;;;;;;6.89;56.81;94238.91;4898260;29;20208;-75
2021/12/01 05:44:43;;;;;;;3.23;2.50;;;;;;;6.89;56.98;94232.06;4897889;29;20232;-78
2021/12/01 05:47:11;;;;;;;2.47;2.27;;;;;;;6.92;57.12;94228.50;4897663;29;20200;-73
2021/12/01 05:49:42;;;;;;;2.50;2.30;;;;;;;6.92;57.09;94231.84;4898160;29;20203;-75
2021/12/01 05:52:09;;;;;;;2.60;2.40;;;;;;;6.93;57.35;94230.09;4897902;29;20295;-78
2021/12/01 05:54:36;;;;;;;2.40;2.20;;;;;;;6.97;57.38;94223.81;4898318;29;20196;-79
2021/12/01 05:57:04;;;;;;;2.60;2.40;;;;;;;7.01;57.47;94237.91;4897181;29;20189;-81
2021/12/01 05:59:31;;;;;;;2.40;2.20;;;;;;;6.85;57.21;94207.84;4898181;29;20233;-83
2021/12/01 06:01:57;;;;;;;3.63;2.30;;;;;;;6.97;57.24;94219.53;4878254;29;20201;-76
2021/12/01 06:04:24;;;;;;;2.23;2.03;;;;;;;7.14;57.52;94240.22;4876699;29;20706;-74
2021/12/01 06:06:53;;;;;;;3.63;2.83;;;;;;;7.18;57.59;94246.66;4876573;29;20273;-76
2021/12/01 06:09:20;;;;;;;2.77;2.57;;;;;;;6.81;57.44;94175.19;4877054;29;20204;-74
2021/12/01 06:11:47;;;;;;;2.50;2.30;;;;;;;7.26;57.51;94239.19;4876487;29;20201;-73
2021/12/01 06:14:16;;;;;;;2.50;2.30;;;;;;;7.32;57.55;94235.31;4876221;29;20260;-73
2021/12/01 06:16:43;;;;;;;3.50;3.00;;;;;;;7.36;57.75;94234.13;4876992;29;20193;-72
2021/12/01 06:19:10;;;;;;;2.10;2.00;;;;;;;7.48;57.30;94254.25;4876390;29;20826;-71
2021/12/01 06:21:38;;;;;;;4.37;2.40;;;;;;;7.70;56.94;94227.78;4876790;29;20240;-75
2021/12/01 06:24:06;;;;;;;3.03;2.53;;;;;;;7.60;57.04;94198.16;4876257;29;20328;-82
2021/12/01 06:26:33;;;;;;;2.47;2.27;;;;;;;7.79;56.66;94219.34;4877013;29;20193;-73
2021/12/01 06:29:00;;;;;;;2.53;2.10;;;;;;;8.13;56.88;94282.66;4874953;29;20744;-74
2021/12/01 06:31:27;;;;;;;3.03;2.63;;;;;;;8.28;56.84;94281.28;4876344;29;20970;-73
2021/12/01 06:33:53;;;;;;;2.53;2.33;;;;;;;8.66;56.44;94284.00;4883467;29;20224;-73
2021/12/01 06:36:20;;;;;;;2.40;2.17;;;;;;;9.13;56.65;94259.34;4894327;29;20201;-71
2021/12/01 06:38:47;;;;;;;3.23;2.57;;;;;;;9.61;56.78;94260.06;4894801;29;20211;-73
2021/12/01 06:41:15;;;;;;;3.67;2.20;;;;;;;9.93;56.13;94287.69;4894461;29;20196;-71
2021/12/01 06:43:42;;;;;;;2.60;2.40;;;;;;;10.35;55.85;94279.53;4894576;29;20694;-74
2021/12/01 06:46:09;;;;;;;3.07;2.60;;;;;;;10.67;55.25;94277.25;4894387;29;20607;-73
2021/12/01 06:48:36;;;;;;;2.60;2.40;;;;;;;10.90;55.00;94280.13;4887306;29;20192;-73
2021/12/01 06:51:03;;;;;;;3.17;2.83;;;;;;;11.31;54.56;94293.16;4861831;29;20197;-71
2021/12/01 06:53:30;;;;;;;2.70;2.50;;;;;;;11.71;54.11;94291.75;4874600;29;20205;-77
2021/12/01 06:55:57;;;;;;;2.80;2.60;;;;;;;11.91;53.67;94290.56;4874497;29;20205;-76
2021/12/01 06:58:25;;;;;;;2.40;2.20;;;;;;;12.28;53.39;94323.50;4875258;29;20208;-76
2021/12/01 07:00:52;;;;;;;3.03;2.73;;;;;;;12.69;53.15;94326.09;4884318;29;20215;-76
2021/12/01 07:03:19;;;;;;;3.50;2.87;;;;;;;13.04;52.50;94334.47;4877055;29;20220;-73
2021/12/01 07:05:46;;;;;;;3.47;3.17;;;;;;;13.35;51.60;94355.16;4872909;29;20225;-72
2021/12/01 07:08:12;;;;;;;4.60;3.43;;;;;;;13.65;51.02;94348.53;4866381;29;20694;-73
2021/12/01 07:10:40;;;;;;;3.77;3.37;;;;;;;14.06;50.40;94330.38;4872787;29;20198;-73
2021/12/01 07:13:06;;;;;;;3.97;3.53;;;;;;;14.45;49.82;94335.47;4876261;29;20243;-75
2021/12/01 07:15:35;;;;;;;2.27;2.07;;;;;;;14.90;69.98;94338.28;4874055;29;20220;-74
2021/12/01 07:18:01;;;;;;;4.10;2.40;;;;;;;15.55;74.81;94278.41;4874456;29;20197;-75
2021/12/01 07:20:28;;;;;;;2.80;2.47;;;;;;;16.76;69.57;94318.34;4868354;29;20205;-74
2021/12/01 07:22:55;;;;;;;3.33;2.70;;;;;;;17.63;64.91;94318.00;4871337;29;20212;-73
2021/12/01 07:25:22;;;;;;;3.17;2.90;;;;;;;18.36;61.69;94320.16;4873281;29;20221;-75
2021/12/01 07:27:49;;;;;;;3.00;2.70;;;;;;;18.83;59.67;94310.72;4874083;29;20841;-77
2021/12/01 07:30:16;;;;;;;3.33;2.57;;;;;;;19.12;58.17;94325.06;4873801;29;20209;-78
2021/12/01 07:32:44;;;;;;;5.83;3.40;;;;;;;19.32;57.30;94338.06;4876460;29;20201;-79
2021/12/01 07:35:11;;;;;;;7.47;4.40;;;;;;;19.44;55.38;94321.69;4868298;29;20201;-78
2021/12/01 07:37:38;;;;;;;8.43;4.40;;;;;;;19.33;53.01;94322.28;4869280;29;20194;-83
2021/12/01 07:40:06;;;;;;;7.77;4.60;;;;;;;19.03;50.45;94335.63;4869519;29;20198;-76
2021/12/01 07:42:33;;;;;;;7.83;5.20;;;;;;;18.71;48.39;94310.50;4871238;29;20213;-75
2021/12/01 07:44:59;;;;;;;6.97;5.03;;;;;;;18.43;47.00;94311.38;4870409;29;20220;-82
2021/12/01 07:47:28;;;;;;;6.23;4.57;;;;;;;18.10;45.98;94318.25;4881265;29;20213;-77
2021/12/01 07:49:56;;;;;;;5.73;4.80;;;;;;;17.67;45.00;94315.84;4881875;29;20208;-78
2021/12/01 07:52:23;;;;;;;4.53;4.13;;;;;;;17.35;44.80;94338.69;4873684;29;20197;-76
2021/12/01 07:54:53;;;;;;;4.33;3.33;;;;;;;16.99;44.30;94331.84;4873647;29;20200;-74
2021/12/01 07:57:19;;;;;;;3.80;3.00;;;;;;;16.71;44.06;94343.84;4875058;29;20193;-80
2021/12/01 07:59:46;;;;;;;3.27;2.97;;;;;;;16.49;44.15;94359.34;4880225;29;20208;-77
2021/12/01 08:02:13;;;;;;;2.73;2.53;;;;;;;15.80;43.68;94274.63;4885881;29;20220;-75
2021/12/01 08:04:40;;;;;;;3.17;2.67;;;;;;;16.07;43.86;94354.88;4874672;29;20225;-76
2021/12/01 08:07:08;;;;;;;2.97;2.50;;;;;;;15.86;44.06;94337.56;4883415;29;20189;-77
2021/12/01 08:09:35;;;;;;;2.30;2.10;;;;;;;15.48;43.95;94331.63;4860311;29;20229;-77
2021/12/01 08:12:02;;;;;;;2.20;2.00;;;;;;;15.63;43.95;94380.63;4882355;29;20204;-75
2021/12/01 08:14:29;;;;;;;2.60;2.27;;;;;;;15.11;43.76;94309.28;4876287;29;20231;-72
2021/12/01 08:16:56;;;;;;;4.17;3.03;;;;;;;15.46;43.95;94374.84;4877162;29;20209;-75
2021/12/01 08:19:23;;;;;;;3.67;3.30;;;;;;;15.28;43.95;94368.22;4876915;29;20568;-76
2021/12/01 08:21:50;;;;;;;7.13;4.03;;;;;;;15.20;43.83;94355.41;4862475;29;20204;-76
2021/12/01 08:24:20;;;;;;;7.37;4.40;;;;;;;15.10;43.56;94359.97;4868685;29;20233;-77
2021/12/01 08:26:48;;;;;;;5.20;3.70;;;;;;;14.81;43.62;94329.81;4879317;29;20686;-76
2021/12/01 08:29:15;;;;;;;4.70;4.03;;;;;;;14.97;43.32;94368.28;4884370;29;20212;-76
2021/12/01 08:31:43;;;;;;;4.57;4.00;;;;;;;14.89;43.47;94355.47;4882679;29;20679;-73
2021/12/01 08:34:10;;;;;;;6.53;4.60;;;;;;;14.90;43.59;94385.41;4877459;29;20286;-77
2021/12/01 08:36:37;;;;;;;7.67;5.10;;;;;;;14.84;43.46;94357.78;4879862;29;20208;-79
2021/12/01 08:39:05;;;;;;;8.80;5.23;;;;;;;14.79;43.57;94367.78;4873442;29;20210;-74
2021/12/01 08:41:33;;;;;;;6.67;5.03;;;;;;;14.66;43.42;94355.47;4867905;29;20194;-77
2021/12/01 08:44:00;;;;;;;8.37;5.67;;;;;;;14.58;43.50;94373.53;4868654;29;20193;-74
2021/12/01 08:46:27;;;;;;;6.90;5.43;;;;;;;14.39;43.50;94363.66;4874216;29;20674;-73
2021/12/01 08:48:54;;;;;;;9.43;6.03;;;;;;;14.43;43.23;94362.34;4876079;29;20189;-76
2021/12/01 08:51:21;;;;;;;6.57;5.33;;;;;;;13.90;43.44;94272.13;4880415;29;20204;-75
2021/12/01 08:53:48;;;;;;;9.90;6.17;;;;;;;14.27;43.24;94348.59;4879596;29;20658;-73
2021/12/01 08:56:15;;;;;;;7.13;6.13;;;;;;;14.19;43.38;94358.13;4881553;29;20193;-72
2021/12/01 08:58:43;;;;;;;8.93;6.47;;;;;;;14.07;43.73;94375.69;4886844;29;20200;-75
2021/12/01 09:01:10;;;;;;;7.90;6.43;;;;;;;13.99;43.70;94373.16;4866441;29;20189;-74
2021/12/01 09:03:37;;;;;;;10.13;6.57;;;;;;;13.88;43.72;94355.53;4876356;29;20204;-76
2021/12/01 09:06:04;;;;;;;9.90;7.13;;;;;;;13.89;43.62;94362.25;4875932;29;20270;-78
2021/12/01 09:08:31;;;;;;;11.27;7.60;;;;;;;13.87;43.81;94387.34;4877873;29;20594;-72
2021/12/01 09:11:02;;;;;;;9.87;7.30;;;;;;;13.85;43.90;94378.97;4877395;29;20197;-73
2021/12/01 09:13:30;;;;;;;11.30;7.80;;;;;;;13.78;43.87;94384.00;4879116;29;20237;-78
2021/12/01 09:15:58;;;;;;;11.40;7.33;;;;;;;13.63;43.96;94383.84;4882251;29;20788;-82
2021/12/01 09:18:27;;;;;;;16.40;9.07;;;;;;;13.49;44.22;94385.31;4880872;29;20214;-81
2021/12/01 09:20:54;;;;;;;13.53;9.27;;;;;;;13.36;44.53;94397.88;4877928;29;20234;-75
2021/12/01 09:23:21;;;;;;;12.83;8.70;;;;;;;13.27;44.75;94399.63;4883852;29;20781;-77
2021/12/01 09:25:48;;;;;;;13.80;8.43;;;;;;;13.07;44.69;94362.38;4879725;29;20756;-76
2021/12/01 09:28:18;;;;;;;11.63;7.87;;;;;;;13.11;44.77;94383.41;4879450;29;20239;-80
2021/12/01 09:30:46;;;;;;;10.37;6.90;;;;;;;13.01;44.71;94391.25;4879457;29;20201;-80
2021/12/01 09:33:15;;;;;;;11.10;8.03;;;;;;;12.90;44.79;94396.69;4878065;29;20276;-72
2021/12/01 09:35:43;;;;;;;8.97;7.13;;;;;;;12.77;44.93;94394.59;4877900;29;20220;-72
2021/12/01 09:38:14;;;;;;;11.83;8.03;;;;;;;12.66;45.17;94374.38;4882149;29;20702;-74
2021/12/01 09:40:42;;;;;;;10.53;7.83;;;;;;;12.64;45.27;94374.53;4880095;29;20201;-74
2021/12/01 09:43:09;;;;;;;9.37;7.10;;;;;;;12.55;45.42;94378.03;4874997;29;20194;-79
2021/12/01 09:45:36;;;;;;;8.57;7.30;;;;;;;12.47;45.19;94368.56;4881929;29;20225;-73
2021/12/01 09:48:03;;;;;;;16.30;8.50;;;;;;;12.46;45.64;94374.66;4885066;29;20687;-79
2021/12/01 09:50:31;;;;;;;12.20;8.63;;;;;;;12.33;45.64;94343.53;4879752;29;20204;-76
2021/12/01 09:52:58;;;;;;;11.80;8.70;;;;;;;12.44;45.62;94365.53;4879790;29;20193;-75
2021/12/01 09:55:25;;;;;;;12.73;9.00;;;;;;;12.41;45.93;94365.84;4879285;29;20339;-76
2021/12/01 09:58:00;;;;;;;11.40;8.70;;;;;;;12.43;46.14;94361.34;4877380;29;20201;-73
2021/12/01 10:00:28;;;;;;;12.67;8.77;;;;;;;12.40;46.24;94353.97;4876927;29;20212;-77
2021/12/01 10:02:55;;;;;;;10.37;8.57;;;;;;;12.48;46.23;94366.81;4879142;29;20208;-73
2021/12/01 10:05:53;;;;;;;14.73;9.10;;;;;;;12.47;46.62;94371.13;4878008;29;20232;-74
2021/12/01 10:08:22;;;;;;;15.77;8.63;;;;;;;12.44;46.36;94365.53;4883708;29;20208;-75
2021/12/01 10:10:52;;;;;;;14.47;9.23;;;;;;;12.43;46.53;94367.25;4876122;29;20197;-76
2021/12/01 10:13:25;;;;;;;13.00;7.87;;;;;;;12.42;46.58;94370.00;4861362;29;20256;-72
2021/12/01 10:15:54;;;;;;;18.17;8.43;;;;;;;12.27;46.52;94341.59;4860973;29;20925;-73
2021/12/01 10:18:21;;;;;;;12.13;8.57;;;;;;;12.34;46.40;94349.47;4870485;29;20204;-73
2021/12/01 10:21:02;;;;;;;13.43;8.20;;;;;;;12.51;46.54;94356.22;4862147;29;20220;-75
2021/12/01 10:23:29;;;;;;;14.07;9.13;;;;;;;12.60;46.44;94373.22;4875282;29;20197;-74
2021/12/01 10:25:57;;;;;;;12.37;8.70;;;;;;;12.57;46.52;94342.78;4875998;29;20221;-73
2021/12/01 10:28:35;;;;;;;11.77;7.90;;;;;;;12.70;46.53;94352.59;4874001;29;20344;-79
2021/12/01 10:31:03;;;;;;;14.03;8.97;;;;;;;12.79;46.51;94346.50;4875928;29;20211;-76
2021/12/01 10:33:30;;;;;;;15.97;8.17;;;;;;;12.89;46.44;94357.41;4876977;29;20201;-76
2021/12/01 10:36:00;;;;;;;16.83;8.67;;;;;;;12.95;46.49;94354.22;4876530;29;20932;-73
2021/12/01 10:38:28;;;;;;;16.30;9.60;;;;;;;13.00;46.51;94359.66;4884249;29;20208;-73
2021/12/01 10:41:04;;;;;;;17.50;9.97;;;;;;;12.98;46.56;94361.56;4883851;29;20200;-81
2021/12/01 10:43:43;;;;;;;16.07;9.37;;;;;;;13.02;46.64;94372.31;4880536;29;20201;-75
2021/12/01 10:46:12;;;;;;;18.37;10.07;;;;;;;12.94;46.86;94344.09;4878338;29;20730;-75
2021/12/01 10:48:40;;;;;;;13.37;9.17;;;;;;;12.98;46.78;94360.78;4881920;29;20208;-78
2021/12/01 10:51:11;;;;;;;16.73;9.37;;;;;;;12.97;46.94;94365.09;4879455;29;20208;-74
2021/12/01 10:53:38;;;;;;;14.73;9.50;;;;;;;12.95;47.17;94355.94;4877542;29;20232;-74
2021/12/01 10:56:07;;;;;;;12.63;8.43;;;;;;;12.88;47.24;94353.25;4879661;29;20197;-75
2021/12/01 10:58:37;;;;;;;11.93;8.53;;;;;;;12.92;47.37;94353.72;4875275;29;20216;-74
2021/12/01 11:01:07;;;;;;;14.20;8.57;;;;;;;12.92;47.36;94340.88;4885372;29;20707;-73
2021/12/01 11:03:35;;;;;;;10.47;7.93;;;;;;;12.96;47.09;94348.09;4876979;29;20225;-75
2021/12/01 11:06:13;;;;;;;11.13;7.10;;;;;;;12.99;47.33;94336.69;4880626;29;20216;-78
2021/12/01 11:08:42;;;;;;;12.67;8.23;;;;;;;13.00;47.38;94336.56;4879895;29;20200;-75
2021/12/01 11:11:11;;;;;;;13.93;7.37;;;;;;;13.00;47.58;94336.56;4877121;29;20223;-75
2021/12/01 11:13:41;;;;;;;12.17;8.23;;;;;;;12.99;47.41;94329.78;4885430;29;20262;-79
2021/12/01 11:16:10;;;;;;;12.00;6.63;;;;;;;12.98;47.71;94328.19;4886509;29;20594;-78
2021/12/01 11:18:39;;;;;;;12.93;7.27;;;;;;;13.00;47.51;94330.63;4892763;29;20193;-75
2021/12/01 11:21:09;;;;;;;12.37;7.53;;;;;;;12.99;47.65;94327.22;4882999;29;20201;-75
2021/12/01 11:23:39;;;;;;;11.27;6.90;;;;;;;13.00;47.57;94336.56;4888708;29;20327;-75
2021/12/01 11:26:09;;;;;;;15.50;6.37;;;;;;;12.98;47.63;94319.69;4892689;29;20243;-74
2021/12/01 11:28:38;;;;;;;8.83;6.40;;;;;;;13.01;47.78;94304.78;4884390;29;20235;-77
2021/12/01 11:31:08;;;;;;;12.03;6.90;;;;;;;12.97;47.60;94298.38;4887785;29;20193;-73
2021/12/01 11:33:36;;;;;;;11.37;7.00;;;;;;;13.00;47.92;94302.38;4884753;29;20200;-83
2021/12/01 11:36:07;;;;;;;7.27;6.07;;;;;;;13.00;47.78;94300.63;4892971;29;20697;-76
2021/12/01 11:38:34;;;;;;;10.47;7.37;;;;;;;13.01;47.68;94311.69;4880412;29;20204;-79
2021/12/01 11:41:04;;;;;;;11.17;7.23;;;;;;;13.02;47.74;94305.59;4890913;29;20192;-79
2021/12/01 11:43:33;;;;;;;10.90;7.07;;;;;;;13.02;47.86;94292.75;4884953;29;20279;-79
2021/12/01 11:46:00;;;;;;;9.83;6.10;;;;;;;12.98;47.94;94279.44;4885961;29;20217;-73